RYR70MX EGPH-LIPE
Flight info
| Callsign | RYR70MX |
|---|---|
| Flight time | N/A |
| Altitude | 25000 |
| Route | TLA Y96 OTBUN/N0434F390 DCT ERKIT N110 DOLAS DCT NAVPI DCT UMUPU DCT TUSUK DCT BATUB DCT TIRUL M738 NATAG DCT LORLO DCT LEDKO DCT ADOSA/N0325F190 M738 BENUS |
| Aircraft | B738/M-SDE3FGIJ1LRWY/SB1 |
Departure
| Time | 2026-04-25 10:32 |
|---|---|
| Airport | Edinburgh Airport (EGPH) |
Arrival
| Time | N/A |
|---|---|
| Airport | Bologna Guglielmo Marconi Airport (LIPE) |
| Time | Latitude | Longitude | Altitude | Speed | Heading |
|---|---|---|---|---|---|
| 2026-04-25 10:03 | 55.94884 | -3.36552 | 115 ft | 0 kts | 148° |
| 2026-04-25 10:23 | 55.94886 | -3.36554 | 115 ft | 2 kts | 148° |
| 2026-04-25 10:23 | 55.94906 | -3.36575 | 113 ft | 2 kts | 148° |
| 2026-04-25 10:23 | 55.94928 | -3.36592 | 114 ft | 4 kts | 180° |
| 2026-04-25 10:23 | 55.94950 | -3.36579 | 112 ft | 4 kts | 225° |
| 2026-04-25 10:24 | 55.94958 | -3.36561 | 112 ft | 0 kts | 238° |
| 2026-04-25 10:26 | 55.94953 | -3.36576 | 111 ft | 4 kts | 238° |
| 2026-04-25 10:26 | 55.94933 | -3.36635 | 115 ft | 9 kts | 238° |
| 2026-04-25 10:27 | 55.94896 | -3.36743 | 112 ft | 10 kts | 239° |
| 2026-04-25 10:27 | 55.94922 | -3.36837 | 115 ft | 10 kts | 313° |
| 2026-04-25 10:27 | 55.94910 | -3.36944 | 113 ft | 9 kts | 239° |
| 2026-04-25 10:27 | 55.94875 | -3.37046 | 115 ft | 11 kts | 239° |
| 2026-04-25 10:28 | 55.94824 | -3.37197 | 113 ft | 18 kts | 238° |
| 2026-04-25 10:28 | 55.94753 | -3.37408 | 115 ft | 20 kts | 238° |
| 2026-04-25 10:28 | 55.94681 | -3.37621 | 113 ft | 20 kts | 238° |
| 2026-04-25 10:28 | 55.94612 | -3.37824 | 114 ft | 19 kts | 239° |
| 2026-04-25 10:29 | 55.94544 | -3.38023 | 113 ft | 18 kts | 239° |
| 2026-04-25 10:29 | 55.94479 | -3.38216 | 113 ft | 18 kts | 239° |
| 2026-04-25 10:29 | 55.94415 | -3.38403 | 113 ft | 17 kts | 238° |
| 2026-04-25 10:29 | 55.94354 | -3.38582 | 114 ft | 17 kts | 239° |
| 2026-04-25 10:30 | 55.94297 | -3.38750 | 114 ft | 13 kts | 238° |
| 2026-04-25 10:30 | 55.94288 | -3.38864 | 115 ft | 10 kts | 311° |
| 2026-04-25 10:30 | 55.94345 | -3.38929 | 114 ft | 10 kts | 329° |
| 2026-04-25 10:30 | 55.94412 | -3.38964 | 113 ft | 11 kts | 28° |
| 2026-04-25 10:31 | 55.94454 | -3.38856 | 113 ft | 12 kts | 58° |
| 2026-04-25 10:31 | 55.94582 | -3.38479 | 112 ft | 73 kts | 59° |
| 2026-04-25 10:31 | 55.94971 | -3.37334 | 112 ft | 141 kts | 59° |
| 2026-04-25 10:31 | 55.95528 | -3.35686 | 610 ft | 159 kts | 61° |
| 2026-04-25 10:32 | 55.96141 | -3.33984 | 1374 ft | 167 kts | 50° |
| 2026-04-25 10:32 | 55.97036 | -3.32471 | 1940 ft | 189 kts | 42° |
| 2026-04-25 10:32 | 55.98105 | -3.30828 | 2309 ft | 214 kts | 41° |
| 2026-04-25 10:32 | 55.99280 | -3.28988 | 2514 ft | 241 kts | 41° |
| 2026-04-25 10:33 | 56.00589 | -3.26907 | 2954 ft | 259 kts | 41° |
| 2026-04-25 10:33 | 56.01949 | -3.24723 | 3735 ft | 265 kts | 41° |
| 2026-04-25 10:33 | 56.03323 | -3.22508 | 4614 ft | 267 kts | 40° |
| 2026-04-25 10:33 | 56.04671 | -3.20190 | 5417 ft | 272 kts | 50° |
| 2026-04-25 10:34 | 56.05414 | -3.17071 | 6182 ft | 279 kts | 82° |
| 2026-04-25 10:34 | 56.05381 | -3.13588 | 6985 ft | 282 kts | 95° |
| 2026-04-25 10:34 | 56.04914 | -3.10164 | 7687 ft | 287 kts | 118° |
| 2026-04-25 10:34 | 56.03579 | -3.07544 | 8472 ft | 287 kts | 143° |
| 2026-04-25 10:35 | 56.01963 | -3.05405 | 9229 ft | 291 kts | 145° |
| 2026-04-25 10:35 | 56.00278 | -3.03348 | 9980 ft | 295 kts | 147° |
| 2026-04-25 10:35 | 55.98564 | -3.01339 | 10612 ft | 303 kts | 147° |
| 2026-04-25 10:35 | 55.96731 | -2.99211 | 10793 ft | 326 kts | 147° |
| 2026-04-25 10:36 | 55.94793 | -2.96959 | 11262 ft | 337 kts | 147° |
| 2026-04-25 10:36 | 55.92818 | -2.94656 | 11986 ft | 339 kts | 147° |
| 2026-04-25 10:36 | 55.90838 | -2.92339 | 12749 ft | 342 kts | 147° |
| 2026-04-25 10:36 | 55.88839 | -2.89996 | 13485 ft | 346 kts | 147° |
| 2026-04-25 10:37 | 55.86818 | -2.87625 | 14212 ft | 350 kts | 147° |
| 2026-04-25 10:37 | 55.84778 | -2.85230 | 14902 ft | 353 kts | 147° |
| 2026-04-25 10:37 | 55.82719 | -2.82815 | 15618 ft | 356 kts | 147° |
| 2026-04-25 10:37 | 55.80643 | -2.80382 | 16335 ft | 359 kts | 147° |
| 2026-04-25 10:38 | 55.78568 | -2.77952 | 17011 ft | 363 kts | 147° |
| 2026-04-25 10:38 | 55.76450 | -2.75474 | 17715 ft | 366 kts | 147° |
| 2026-04-25 10:38 | 55.74308 | -2.72973 | 18402 ft | 370 kts | 147° |
| 2026-04-25 10:38 | 55.72143 | -2.70448 | 18994 ft | 374 kts | 147° |
| 2026-04-25 10:39 | 55.69959 | -2.67903 | 19604 ft | 377 kts | 147° |
| 2026-04-25 10:39 | 55.67755 | -2.65338 | 20186 ft | 380 kts | 147° |
| 2026-04-25 10:39 | 55.65537 | -2.62761 | 20768 ft | 383 kts | 147° |
| 2026-04-25 10:39 | 55.63300 | -2.60165 | 21341 ft | 386 kts | 147° |
| 2026-04-25 10:40 | 55.61046 | -2.57554 | 21904 ft | 389 kts | 146° |
| 2026-04-25 10:40 | 55.58773 | -2.54923 | 22462 ft | 392 kts | 146° |
| 2026-04-25 10:40 | 55.56481 | -2.52275 | 23003 ft | 395 kts | 146° |
| 2026-04-25 10:40 | 55.54952 | -2.50511 | 23353 ft | 397 kts | 146° |
| 2026-04-25 10:41 | 55.51867 | -2.46955 | 24002 ft | 402 kts | 146° |
| 2026-04-25 10:41 | 55.49516 | -2.44250 | 24439 ft | 404 kts | 146° |
| 2026-04-25 10:41 | 55.47152 | -2.41534 | 24895 ft | 406 kts | 146° |
| 2026-04-25 10:41 | 55.44772 | -2.38804 | 25319 ft | 409 kts | 146° |
| 2026-04-25 10:42 | 55.42378 | -2.36062 | 25730 ft | 411 kts | 146° |
| 2026-04-25 10:42 | 55.39999 | -2.33340 | 26127 ft | 414 kts | 146° |
| 2026-04-25 10:42 | 55.37570 | -2.30566 | 26532 ft | 416 kts | 146° |
| 2026-04-25 10:42 | 55.35131 | -2.27784 | 26934 ft | 419 kts | 146° |
| 2026-04-25 10:43 | 55.32678 | -2.24991 | 27326 ft | 421 kts | 146° |
| 2026-04-25 10:43 | 55.30201 | -2.22176 | 27704 ft | 423 kts | 146° |
| 2026-04-25 10:43 | 55.27757 | -2.19400 | 28062 ft | 426 kts | 146° |
| 2026-04-25 10:43 | 55.25261 | -2.16571 | 28419 ft | 428 kts | 146° |
| 2026-04-25 10:44 | 55.22753 | -2.13732 | 28773 ft | 430 kts | 146° |
| 2026-04-25 10:44 | 55.20234 | -2.10885 | 29133 ft | 432 kts | 146° |
| 2026-04-25 10:44 | 55.17699 | -2.08025 | 29475 ft | 434 kts | 146° |
| 2026-04-25 10:44 | 55.15154 | -2.05158 | 29809 ft | 436 kts | 146° |
| 2026-04-25 10:45 | 55.12589 | -2.02272 | 30118 ft | 439 kts | 146° |
| 2026-04-25 10:45 | 55.10013 | -1.99379 | 30409 ft | 441 kts | 146° |
| 2026-04-25 10:45 | 55.07426 | -1.96477 | 30663 ft | 442 kts | 146° |
| 2026-04-25 10:45 | 55.04831 | -1.93572 | 30916 ft | 444 kts | 146° |
| 2026-04-25 10:46 | 55.02260 | -1.90697 | 31155 ft | 446 kts | 146° |
| 2026-04-25 10:46 | 54.99645 | -1.87778 | 31398 ft | 447 kts | 146° |
| 2026-04-25 10:46 | 54.97020 | -1.84853 | 31633 ft | 449 kts | 146° |
| 2026-04-25 10:46 | 54.94385 | -1.81921 | 31857 ft | 450 kts | 146° |
| 2026-04-25 10:47 | 54.91729 | -1.78970 | 32072 ft | 452 kts | 146° |
| 2026-04-25 10:47 | 54.89075 | -1.76027 | 32285 ft | 453 kts | 146° |
| 2026-04-25 10:47 | 54.86411 | -1.73077 | 32537 ft | 453 kts | 146° |
| 2026-04-25 10:47 | 54.83755 | -1.70140 | 32848 ft | 452 kts | 146° |
| 2026-04-25 10:48 | 54.81106 | -1.67217 | 33159 ft | 451 kts | 146° |
| 2026-04-25 10:48 | 54.78458 | -1.64298 | 33423 ft | 451 kts | 146° |
| 2026-04-25 10:48 | 54.75844 | -1.61421 | 33664 ft | 451 kts | 147° |
| 2026-04-25 10:48 | 54.73190 | -1.58505 | 33943 ft | 450 kts | 147° |
| 2026-04-25 10:49 | 54.70548 | -1.55607 | 34217 ft | 449 kts | 147° |
| 2026-04-25 10:49 | 54.68795 | -1.53686 | 34356 ft | 449 kts | 147° |
| 2026-04-25 10:49 | 54.65259 | -1.49819 | 34651 ft | 449 kts | 147° |
| 2026-04-25 10:49 | 54.62619 | -1.46937 | 34874 ft | 448 kts | 147° |
| 2026-04-25 10:50 | 54.59981 | -1.44061 | 35074 ft | 448 kts | 147° |
| 2026-04-25 10:50 | 54.57342 | -1.41189 | 35264 ft | 448 kts | 147° |
| 2026-04-25 10:50 | 54.54704 | -1.38322 | 35445 ft | 448 kts | 147° |
| 2026-04-25 10:50 | 54.52099 | -1.35495 | 35636 ft | 448 kts | 147° |
| 2026-04-25 10:51 | 54.49460 | -1.32635 | 35828 ft | 448 kts | 147° |
| 2026-04-25 10:51 | 54.46822 | -1.29781 | 36011 ft | 448 kts | 147° |
| 2026-04-25 10:51 | 54.44182 | -1.26930 | 36181 ft | 448 kts | 148° |
| 2026-04-25 10:51 | 54.41539 | -1.24080 | 36357 ft | 448 kts | 148° |
| 2026-04-25 10:52 | 54.38900 | -1.21238 | 36549 ft | 447 kts | 148° |
| 2026-04-25 10:52 | 54.36266 | -1.18405 | 36729 ft | 447 kts | 148° |
| 2026-04-25 10:52 | 54.33632 | -1.15578 | 36907 ft | 446 kts | 148° |
| 2026-04-25 10:52 | 54.30994 | -1.12750 | 37069 ft | 446 kts | 148° |
| 2026-04-25 10:53 | 54.28397 | -1.09970 | 37227 ft | 446 kts | 148° |
| 2026-04-25 10:53 | 54.25763 | -1.07155 | 37391 ft | 446 kts | 148° |
| 2026-04-25 10:53 | 54.23127 | -1.04343 | 37553 ft | 445 kts | 148° |
| 2026-04-25 10:53 | 54.20500 | -1.01543 | 37715 ft | 445 kts | 148° |
| 2026-04-25 10:54 | 54.17869 | -0.98744 | 37845 ft | 445 kts | 148° |
| 2026-04-25 10:54 | 54.12607 | -0.93160 | 38138 ft | 445 kts | 149° |
| 2026-04-25 10:54 | 54.09973 | -0.90369 | 38290 ft | 444 kts | 149° |
| 2026-04-25 10:55 | 54.07349 | -0.87592 | 38408 ft | 444 kts | 149° |
| 2026-04-25 10:55 | 54.04748 | -0.84845 | 38517 ft | 445 kts | 149° |
| 2026-04-25 10:55 | 54.02118 | -0.82060 | 38645 ft | 445 kts | 148° |
| 2026-04-25 10:55 | 53.99533 | -0.79134 | 38751 ft | 445 kts | 146° |
| 2026-04-25 10:56 | 53.96991 | -0.76119 | 38855 ft | 446 kts | 145° |
| 2026-04-25 10:56 | 53.94458 | -0.73078 | 38959 ft | 445 kts | 146° |
| 2026-04-25 10:56 | 53.91928 | -0.70054 | 39060 ft | 445 kts | 146° |
| 2026-04-25 10:56 | 53.89421 | -0.67084 | 39161 ft | 444 kts | 146° |
| 2026-04-25 10:57 | 53.86878 | -0.64097 | 39199 ft | 445 kts | 146° |
| 2026-04-25 10:57 | 53.81765 | -0.58133 | 39210 ft | 447 kts | 146° |
| 2026-04-25 10:58 | 53.76635 | -0.52174 | 39218 ft | 448 kts | 146° |
| 2026-04-25 10:58 | 53.71490 | -0.46211 | 39215 ft | 449 kts | 147° |
| 2026-04-25 10:59 | 53.67192 | -0.41257 | 39211 ft | 449 kts | 147° |
| 2026-04-25 10:59 | 53.62020 | -0.35338 | 39213 ft | 449 kts | 147° |
| 2026-04-25 11:00 | 53.57072 | -0.28917 | 39201 ft | 450 kts | 135° |
| 2026-04-25 11:00 | 53.53196 | -0.20639 | 39212 ft | 450 kts | 127° |
| 2026-04-25 11:01 | 53.49506 | -0.12212 | 39210 ft | 449 kts | 128° |
| 2026-04-25 11:01 | 53.45765 | -0.03815 | 39212 ft | 449 kts | 128° |
| 2026-04-25 11:02 | 53.41997 | 0.04536 | 39214 ft | 448 kts | 129° |
| 2026-04-25 11:02 | 53.38233 | 0.12834 | 39215 ft | 447 kts | 129° |
| 2026-04-25 11:03 | 53.34465 | 0.21121 | 39209 ft | 447 kts | 129° |
| 2026-04-25 11:03 | 53.30719 | 0.29333 | 39212 ft | 446 kts | 129° |
| 2026-04-25 11:04 | 53.26943 | 0.37592 | 39222 ft | 446 kts | 129° |
| 2026-04-25 11:04 | 53.23163 | 0.45820 | 39219 ft | 446 kts | 129° |
| 2026-04-25 11:05 | 53.19373 | 0.54030 | 39218 ft | 447 kts | 129° |
| 2026-04-25 11:05 | 53.15592 | 0.62197 | 39219 ft | 447 kts | 129° |
| 2026-04-25 11:06 | 53.11783 | 0.70404 | 39219 ft | 448 kts | 130° |
| 2026-04-25 11:06 | 53.07966 | 0.78602 | 39215 ft | 448 kts | 130° |
| 2026-04-25 11:07 | 53.04140 | 0.86793 | 39216 ft | 449 kts | 130° |
| 2026-04-25 11:07 | 53.00301 | 0.94988 | 39214 ft | 450 kts | 130° |
| 2026-04-25 11:08 | 52.96949 | 1.03775 | 39207 ft | 454 kts | 114° |
| 2026-04-25 11:08 | 52.94749 | 1.13552 | 39215 ft | 455 kts | 112° |
| 2026-04-25 11:09 | 52.92577 | 1.23462 | 39210 ft | 456 kts | 112° |
| 2026-04-25 11:09 | 52.90364 | 1.33322 | 39213 ft | 457 kts | 112° |
| 2026-04-25 11:10 | 52.88117 | 1.43164 | 39211 ft | 457 kts | 113° |
| 2026-04-25 11:10 | 52.85851 | 1.53007 | 39207 ft | 457 kts | 113° |
| 2026-04-25 11:11 | 52.83580 | 1.62828 | 39214 ft | 457 kts | 113° |
| 2026-04-25 11:11 | 52.81316 | 1.72583 | 39210 ft | 457 kts | 113° |
| 2026-04-25 11:12 | 52.79026 | 1.82407 | 39216 ft | 457 kts | 114° |
| 2026-04-25 11:12 | 52.76731 | 1.92207 | 39218 ft | 457 kts | 114° |
| 2026-04-25 11:13 | 52.74430 | 2.01987 | 39221 ft | 457 kts | 114° |
| 2026-04-25 11:13 | 52.72134 | 2.11701 | 39222 ft | 457 kts | 114° |
| 2026-04-25 11:14 | 52.69819 | 2.21453 | 39227 ft | 457 kts | 114° |
| 2026-04-25 11:14 | 52.67495 | 2.31201 | 39220 ft | 457 kts | 114° |
| 2026-04-25 11:15 | 52.65159 | 2.40951 | 39224 ft | 457 kts | 114° |
| 2026-04-25 11:15 | 52.62834 | 2.50614 | 39222 ft | 457 kts | 114° |
| 2026-04-25 11:16 | 52.59308 | 2.65189 | 39228 ft | 457 kts | 114° |
| 2026-04-25 11:16 | 52.56949 | 2.74896 | 39226 ft | 457 kts | 114° |
| 2026-04-25 11:17 | 52.54516 | 2.84555 | 39221 ft | 455 kts | 120° |
| 2026-04-25 11:17 | 52.51206 | 2.93274 | 39226 ft | 452 kts | 127° |
| 2026-04-25 11:18 | 52.47704 | 3.01863 | 39227 ft | 452 kts | 127° |
| 2026-04-25 11:18 | 52.44219 | 3.10462 | 39222 ft | 453 kts | 127° |
| 2026-04-25 11:19 | 52.40774 | 3.19026 | 39225 ft | 453 kts | 126° |
| 2026-04-25 11:19 | 52.37307 | 3.27657 | 39226 ft | 453 kts | 126° |
| 2026-04-25 11:20 | 52.33834 | 3.36276 | 39226 ft | 453 kts | 127° |
| 2026-04-25 11:20 | 52.30354 | 3.44884 | 39227 ft | 453 kts | 127° |
| 2026-04-25 11:21 | 52.26869 | 3.53472 | 39227 ft | 454 kts | 127° |
| 2026-04-25 11:21 | 52.23376 | 3.62052 | 39228 ft | 453 kts | 127° |
| 2026-04-25 11:22 | 52.20464 | 3.69180 | 39229 ft | 453 kts | 127° |
| 2026-04-25 11:22 | 52.16386 | 3.79131 | 39229 ft | 453 kts | 127° |
| 2026-04-25 11:23 | 52.12879 | 3.87659 | 39227 ft | 453 kts | 127° |
| 2026-04-25 11:23 | 52.09368 | 3.96167 | 39224 ft | 452 kts | 127° |
| 2026-04-25 11:24 | 52.05872 | 4.04612 | 39222 ft | 452 kts | 127° |
| 2026-04-25 11:24 | 52.02358 | 4.13071 | 39214 ft | 452 kts | 127° |
| 2026-04-25 11:25 | 51.98835 | 4.21524 | 39210 ft | 451 kts | 127° |
| 2026-04-25 11:25 | 51.95315 | 4.29942 | 39213 ft | 451 kts | 127° |
| 2026-04-25 11:26 | 51.91789 | 4.38346 | 39213 ft | 450 kts | 127° |
| 2026-04-25 11:26 | 51.88260 | 4.46731 | 39215 ft | 450 kts | 128° |
| 2026-04-25 11:27 | 51.84724 | 4.55105 | 39208 ft | 450 kts | 127° |
| 2026-04-25 11:27 | 51.81800 | 4.62009 | 39208 ft | 450 kts | 128° |
| 2026-04-25 11:28 | 51.77660 | 4.71754 | 39207 ft | 450 kts | 128° |
| 2026-04-25 11:28 | 51.74113 | 4.80073 | 39207 ft | 450 kts | 128° |
| 2026-04-25 11:29 | 51.70573 | 4.88343 | 39274 ft | 453 kts | 125° |
| 2026-04-25 11:29 | 51.66967 | 4.96747 | 39202 ft | 458 kts | 125° |
| 2026-04-25 11:30 | 51.63320 | 5.05220 | 39218 ft | 462 kts | 125° |
| 2026-04-25 11:30 | 51.59638 | 5.13743 | 39222 ft | 465 kts | 125° |
| 2026-04-25 11:31 | 51.55928 | 5.22305 | 39221 ft | 468 kts | 125° |
| 2026-04-25 11:31 | 51.52211 | 5.30853 | 39221 ft | 470 kts | 125° |
| 2026-04-25 11:32 | 51.48452 | 5.39469 | 39213 ft | 471 kts | 125° |
| 2026-04-25 11:32 | 51.44684 | 5.48078 | 39209 ft | 471 kts | 125° |
| 2026-04-25 11:33 | 51.40918 | 5.56654 | 39207 ft | 469 kts | 126° |
| 2026-04-25 11:33 | 51.37163 | 5.65178 | 39197 ft | 467 kts | 126° |
| 2026-04-25 11:34 | 51.33416 | 5.73653 | 39195 ft | 465 kts | 126° |
| 2026-04-25 11:34 | 51.29711 | 5.82007 | 39190 ft | 463 kts | 126° |
| 2026-04-25 11:35 | 51.25988 | 5.90374 | 39189 ft | 461 kts | 126° |